createdAt,value
2022-11-25T00:01:16.474Z,2.58
2022-11-25T00:03:44.881Z,2.40
2022-11-25T00:06:13.120Z,2.55
2022-11-25T00:08:41.798Z,2.75
2022-11-25T00:11:09.439Z,2.38
2022-11-25T00:13:37.050Z,2.38
2022-11-25T00:16:10.093Z,3.28
2022-11-25T00:18:37.692Z,2.80
2022-11-25T00:21:09.568Z,2.30
2022-11-25T00:23:37.450Z,3.15
2022-11-25T00:26:08.404Z,2.55
2022-11-25T00:28:35.657Z,2.75
2022-11-25T00:31:23.422Z,2.70
2022-11-25T00:33:51.364Z,2.75
2022-11-25T00:36:22.320Z,2.40
2022-11-25T00:39:12.271Z,2.70
2022-11-25T00:41:58.030Z,2.75
2022-11-25T00:44:38.589Z,2.75
2022-11-25T00:47:12.856Z,2.50
2022-11-25T00:49:42.411Z,2.40
2022-11-25T00:52:13.615Z,2.70
2022-11-25T00:54:40.621Z,2.70
2022-11-25T00:57:07.533Z,2.60
2022-11-25T00:59:34.627Z,2.75
2022-11-25T01:02:01.615Z,2.50
2022-11-25T01:04:28.646Z,2.40
2022-11-25T01:06:56.888Z,1.73
2022-11-25T01:09:23.783Z,1.67
2022-11-25T01:11:51.455Z,1.50
2022-11-25T01:14:19.280Z,1.30
2022-11-25T01:16:46.196Z,1.35
2022-11-25T01:19:13.641Z,1.38
2022-11-25T01:21:40.796Z,1.10
2022-11-25T01:24:08.227Z,1.23
2022-11-25T01:26:36.026Z,1.20
2022-11-25T01:29:05.649Z,1.10
2022-11-25T01:31:35.251Z,1.30
2022-11-25T01:34:23.309Z,1.10
2022-11-25T01:36:50.285Z,1.15
2022-11-25T01:39:19.668Z,1.02
2022-11-25T01:41:47.692Z,1.23
2022-11-25T01:44:20.227Z,1.23
2022-11-25T01:47:08.996Z,1.27
2022-11-25T01:49:39.118Z,1.00
2022-11-25T01:52:15.147Z,1.02
2022-11-25T01:54:50.936Z,1.00
2022-11-25T01:57:26.355Z,1.05
2022-11-25T01:59:57.873Z,1.45
2022-11-25T02:02:25.603Z,0.95
2022-11-25T02:04:52.892Z,1.13
2022-11-25T02:07:32.180Z,1.00
2022-11-25T02:10:01.842Z,0.98
2022-11-25T02:12:30.113Z,1.00
2022-11-25T02:14:58.638Z,1.10
2022-11-25T02:17:25.709Z,1.05
2022-11-25T02:20:08.824Z,0.95
2022-11-25T02:22:49.676Z,0.90
2022-11-25T02:25:38.359Z,1.00
2022-11-25T02:28:06.160Z,1.10
2022-11-25T02:30:34.388Z,1.08
2022-11-25T02:33:01.412Z,1.30
2022-11-25T02:35:37.252Z,1.15
2022-11-25T02:38:06.215Z,0.95
2022-11-25T02:40:37.447Z,1.10
2022-11-25T02:43:04.330Z,0.80
2022-11-25T02:45:51.852Z,0.98
2022-11-25T02:48:19.503Z,1.08
2022-11-25T02:50:46.532Z,1.00
2022-11-25T02:53:13.482Z,1.00
2022-11-25T02:55:40.485Z,1.10
2022-11-25T02:58:07.548Z,0.82
2022-11-25T03:00:34.751Z,1.08
2022-11-25T03:03:01.675Z,0.93
2022-11-25T03:05:28.781Z,1.05
2022-11-25T03:07:55.789Z,1.17
2022-11-25T03:10:23.117Z,0.93
2022-11-25T03:12:50.163Z,0.90
2022-11-25T03:15:17.600Z,1.00
2022-11-25T03:17:44.975Z,1.27
2022-11-25T03:20:13.146Z,0.90
2022-11-25T03:22:40.026Z,1.38
2022-11-25T03:25:07.078Z,1.10
2022-11-25T03:27:34.476Z,1.20
2022-11-25T03:30:01.381Z,1.13
2022-11-25T03:32:28.233Z,1.73
2022-11-25T03:34:55.005Z,1.00
2022-11-25T03:37:21.904Z,1.00
2022-11-25T03:39:49.203Z,1.40
2022-11-25T03:42:16.090Z,1.50
2022-11-25T03:44:42.924Z,1.20
2022-11-25T03:47:09.963Z,1.30
2022-11-25T03:49:36.864Z,1.10
2022-11-25T03:52:04.070Z,1.25
2022-11-25T03:54:31.014Z,1.58
2022-11-25T03:56:57.754Z,1.40
2022-11-25T03:59:24.566Z,1.30
2022-11-25T04:01:51.385Z,1.73
2022-11-25T04:04:18.317Z,1.50
2022-11-25T04:06:45.104Z,1.63
2022-11-25T04:09:14.759Z,1.30
2022-11-25T04:12:00.448Z,1.90
2022-11-25T04:14:27.512Z,1.45
2022-11-25T04:16:55.719Z,1.50
2022-11-25T04:19:22.695Z,1.65
2022-11-25T04:21:52.594Z,1.98
2022-11-25T04:24:20.497Z,1.90
2022-11-25T04:26:47.242Z,1.58
2022-11-25T04:29:14.458Z,2.15
2022-11-25T04:31:41.339Z,1.60
2022-11-25T04:34:08.181Z,1.90
2022-11-25T04:36:35.015Z,1.80
2022-11-25T04:39:01.899Z,2.00
2022-11-25T04:41:28.690Z,1.70
2022-11-25T04:43:55.424Z,2.00
2022-11-25T04:46:28.032Z,2.20
2022-11-25T04:48:54.887Z,1.98
2022-11-25T04:51:21.875Z,2.00
2022-11-25T04:53:48.622Z,2.00
2022-11-25T04:56:18.694Z,2.08
2022-11-25T04:59:04.861Z,2.25
2022-11-25T05:01:31.757Z,2.00
2022-11-25T05:03:58.690Z,1.80
2022-11-25T05:06:25.498Z,2.20
2022-11-25T05:08:52.267Z,2.20
2022-11-25T05:11:19.139Z,2.30
2022-11-25T05:13:46.024Z,2.30
2022-11-25T05:16:13.173Z,2.10
2022-11-25T05:18:40.213Z,1.90
2022-11-25T05:21:07.587Z,1.90
2022-11-25T05:23:34.489Z,2.45
2022-11-25T05:26:02.621Z,1.90
2022-11-25T05:28:30.339Z,2.05
2022-11-25T05:30:57.530Z,2.28
2022-11-25T05:33:24.521Z,2.22
2022-11-25T05:35:59.670Z,2.15
2022-11-25T05:38:27.342Z,1.67
2022-11-25T05:40:59.980Z,1.98
2022-11-25T05:43:26.815Z,2.25
2022-11-25T05:45:53.730Z,2.42
2022-11-25T05:48:20.504Z,2.00
2022-11-25T05:50:47.303Z,2.25
2022-11-25T05:53:17.462Z,2.20
2022-11-25T05:55:44.560Z,2.45
2022-11-25T05:58:11.355Z,1.75
2022-11-25T06:00:38.102Z,2.10
2022-11-25T06:03:05.055Z,2.13
2022-11-25T06:05:35.383Z,1.88
2022-11-25T06:08:02.195Z,2.20
2022-11-25T06:10:29.040Z,1.80
2022-11-25T06:12:55.846Z,2.08
2022-11-25T06:15:22.736Z,2.00
2022-11-25T06:17:49.603Z,2.33
2022-11-25T06:20:16.620Z,1.92
2022-11-25T06:22:43.511Z,2.20
2022-11-25T06:25:10.301Z,2.10
2022-11-25T06:28:04.397Z,1.80
2022-11-25T06:30:24.231Z,2.05
2022-11-25T06:32:51.404Z,2.30
2022-11-25T06:35:18.302Z,2.33
2022-11-25T06:37:45.172Z,2.50
2022-11-25T06:40:12.281Z,2.50
2022-11-25T06:42:39.593Z,2.15
2022-11-25T06:45:07.262Z,2.13
2022-11-25T06:47:34.040Z,2.05
2022-11-25T06:50:03.559Z,2.10
2022-11-25T06:52:31.626Z,2.22
2022-11-25T06:54:58.463Z,2.33
2022-11-25T06:57:25.646Z,2.42
2022-11-25T06:59:52.667Z,2.22
2022-11-25T07:02:19.533Z,2.38
2022-11-25T07:04:46.356Z,2.42
2022-11-25T07:07:13.305Z,2.10
2022-11-25T07:09:40.125Z,1.98
2022-11-25T07:12:07.313Z,1.98
2022-11-25T07:14:34.831Z,2.40
2022-11-25T07:17:02.951Z,2.50
2022-11-25T07:19:35.424Z,2.30
2022-11-25T07:22:02.765Z,2.60
2022-11-25T07:24:29.714Z,2.88
2022-11-25T07:26:56.627Z,2.75
2022-11-25T07:32:11.669Z,2.97
2022-11-25T07:34:38.768Z,2.38
2022-11-25T07:37:05.564Z,2.50
2022-11-25T07:39:32.448Z,2.65
2022-11-25T07:41:59.225Z,2.60
2022-11-25T07:44:26.018Z,2.10
2022-11-25T07:46:52.888Z,2.80
2022-11-25T07:49:26.553Z,2.53
2022-11-25T07:51:57.595Z,2.85
2022-11-25T07:54:24.968Z,2.80
2022-11-25T07:56:52.214Z,2.40
2022-11-25T07:59:21.542Z,2.70
2022-11-25T08:01:52.993Z,2.38
2022-11-25T08:04:21.239Z,2.83
2022-11-25T08:06:51.035Z,2.30
2022-11-25T08:09:20.237Z,2.55
2022-11-25T08:11:47.799Z,2.80
2022-11-25T08:14:15.583Z,3.20
2022-11-25T08:16:43.069Z,3.38
2022-11-25T08:19:14.214Z,2.70
2022-11-25T08:21:41.584Z,2.75
2022-11-25T08:24:10.033Z,2.50
2022-11-25T08:26:37.676Z,3.22
2022-11-25T08:29:07.454Z,2.80
2022-11-25T08:31:37.513Z,2.53
2022-11-25T08:34:06.688Z,2.65
2022-11-25T08:36:34.702Z,2.70
2022-11-25T08:39:22.581Z,2.28
2022-11-25T08:41:53.600Z,2.97
2022-11-25T08:44:20.451Z,3.97
2022-11-25T08:46:49.699Z,3.17
2022-11-25T08:49:17.487Z,3.40
2022-11-25T08:51:44.595Z,3.55
2022-11-25T08:54:11.521Z,3.67
2022-11-25T08:56:38.341Z,3.25
2022-11-25T08:59:05.383Z,3.33
2022-11-25T09:01:32.515Z,3.20
2022-11-25T09:04:00.208Z,3.30
2022-11-25T09:06:28.323Z,3.72
2022-11-25T09:08:56.766Z,3.90
2022-11-25T09:11:24.547Z,3.50
2022-11-25T09:13:51.650Z,3.47
2022-11-25T09:16:18.523Z,3.35
2022-11-25T09:18:45.750Z,2.85
2022-11-25T09:21:15.221Z,3.15
2022-11-25T09:23:42.120Z,2.50
2022-11-25T09:26:36.619Z,2.60
2022-11-25T09:29:04.708Z,2.50
2022-11-25T09:31:31.671Z,2.20
2022-11-25T09:33:59.035Z,2.22
2022-11-25T09:36:26.035Z,2.40
2022-11-25T09:38:53.128Z,2.17
2022-11-25T09:41:50.512Z,2.42
2022-11-25T09:44:55.386Z,1.55
2022-11-25T09:47:57.299Z,2.15
2022-11-25T09:50:42.521Z,2.10
2022-11-25T09:53:28.256Z,2.08
2022-11-25T09:56:02.037Z,2.60
2022-11-25T09:58:34.742Z,2.20
2022-11-25T10:01:12.185Z,1.80
2022-11-25T10:03:45.008Z,2.00
2022-11-25T10:06:17.633Z,1.70
2022-11-25T10:08:51.518Z,1.83
2022-11-25T10:11:21.760Z,2.28
2022-11-25T10:14:02.435Z,1.80
2022-11-25T10:16:39.314Z,1.45
2022-11-25T10:19:16.946Z,1.60
2022-11-25T10:21:46.328Z,1.70
2022-11-25T10:24:15.411Z,1.60
2022-11-25T10:26:46.447Z,1.80
2022-11-25T10:29:13.198Z,1.63
2022-11-25T10:31:42.742Z,1.67
2022-11-25T10:34:40.678Z,2.15
2022-11-25T10:37:16.377Z,1.40
2022-11-25T10:39:43.168Z,1.65
2022-11-25T10:42:22.384Z,1.45
2022-11-25T10:44:49.197Z,1.60
2022-11-25T10:47:51.817Z,1.70
2022-11-25T10:50:33.604Z,1.40
2022-11-25T10:53:09.368Z,1.60
2022-11-25T10:55:36.377Z,1.40
2022-11-25T10:58:26.797Z,1.45
2022-11-25T11:01:07.041Z,1.40
2022-11-25T11:03:34.652Z,1.50
2022-11-25T11:06:01.625Z,1.40
2022-11-25T11:08:39.795Z,1.70
2022-11-25T11:11:21.667Z,1.60
2022-11-25T11:13:50.688Z,1.80
2022-11-25T11:16:36.892Z,1.77
2022-11-25T11:19:05.434Z,1.88
2022-11-25T11:21:41.873Z,1.75
2022-11-25T11:24:32.284Z,2.00
2022-11-25T11:27:21.311Z,1.98
2022-11-25T11:29:49.100Z,2.00
2022-11-25T11:32:25.601Z,2.13
2022-11-25T11:35:03.531Z,2.08
2022-11-25T11:37:44.340Z,2.17
2022-11-25T11:40:35.483Z,2.03
2022-11-25T11:43:05.177Z,2.15
2022-11-25T11:45:59.565Z,2.10
2022-11-25T11:48:40.146Z,2.35
2022-11-25T11:51:10.107Z,2.13
2022-11-25T11:53:45.510Z,2.58
2022-11-25T11:56:36.171Z,2.03
2022-11-25T11:59:25.581Z,2.38
2022-11-25T12:01:55.311Z,2.20
2022-11-25T12:04:36.430Z,2.20
2022-11-25T12:07:20.600Z,2.45
2022-11-25T12:10:14.788Z,1.98
2022-11-25T12:13:00.435Z,2.00
2022-11-25T12:15:43.334Z,2.20
2022-11-25T12:18:20.569Z,2.22
2022-11-25T12:21:02.998Z,2.30
2022-11-25T12:23:55.924Z,3.03
2022-11-25T12:26:31.185Z,2.20
2022-11-25T12:29:05.296Z,2.55
2022-11-25T12:31:39.748Z,4.00
2022-11-25T12:34:09.718Z,2.70
2022-11-25T12:36:40.047Z,2.65
2022-11-25T12:39:21.808Z,2.75
2022-11-25T12:41:57.717Z,2.58
2022-11-25T12:44:43.411Z,2.40
2022-11-25T12:47:13.262Z,2.42
2022-11-25T12:49:48.977Z,3.10
2022-11-25T12:52:53.577Z,2.28
2022-11-25T12:55:28.020Z,2.85
2022-11-25T12:58:00.542Z,2.90
2022-11-25T13:00:41.587Z,2.75
2022-11-25T13:03:14.065Z,2.53
2022-11-25T13:06:20.326Z,2.88
2022-11-25T13:09:02.129Z,2.67
2022-11-25T13:11:57.379Z,2.63
2022-11-25T13:14:34.230Z,2.55
2022-11-25T13:17:02.037Z,2.67
2022-11-25T13:19:29.280Z,3.38
2022-11-25T13:21:56.032Z,3.03
2022-11-25T13:24:49.519Z,2.33
2022-11-25T13:27:42.363Z,2.72
2022-11-25T13:30:32.019Z,2.80
2022-11-25T13:33:25.475Z,2.80
2022-11-25T13:35:56.678Z,2.42
2022-11-25T13:38:29.667Z,2.72
2022-11-25T13:41:02.911Z,2.85
2022-11-25T13:43:30.064Z,2.88
2022-11-25T13:45:57.078Z,3.22
2022-11-25T13:48:27.286Z,3.10
2022-11-25T13:51:14.072Z,3.20
2022-11-25T13:53:41.287Z,3.13
2022-11-25T13:56:34.120Z,2.83
2022-11-25T13:59:10.241Z,2.92
2022-11-25T14:01:50.441Z,3.00
2022-11-25T14:04:34.751Z,3.13
2022-11-25T14:07:23.856Z,3.00
2022-11-25T14:10:21.360Z,3.95
2022-11-25T14:12:57.907Z,3.30
2022-11-25T14:15:42.680Z,2.97
2022-11-25T14:18:12.981Z,3.50
2022-11-25T14:21:24.509Z,3.20
2022-11-25T14:24:00.507Z,3.67
2022-11-25T14:26:49.701Z,2.95
2022-11-25T14:29:31.427Z,3.70
2022-11-25T14:32:13.198Z,3.72
2022-11-25T14:34:48.038Z,3.08
2022-11-25T14:37:35.056Z,2.90
2022-11-25T14:40:18.431Z,2.67
2022-11-25T14:42:49.867Z,3.22
2022-11-25T14:45:27.609Z,3.10
2022-11-25T14:47:55.353Z,3.22
2022-11-25T14:50:38.627Z,3.58
2022-11-25T14:53:12.060Z,3.67
2022-11-25T14:55:38.937Z,2.85
2022-11-25T14:58:06.208Z,3.35
2022-11-25T15:00:33.043Z,3.35
2022-11-25T15:03:02.489Z,3.47
2022-11-25T15:05:37.525Z,3.75
2022-11-25T15:08:18.046Z,3.58
2022-11-25T15:10:57.164Z,5.32
2022-11-25T15:13:47.792Z,5.22
2022-11-25T15:16:18.015Z,5.13
2022-11-25T15:19:06.157Z,4.15
2022-11-25T15:21:54.167Z,3.30
2022-11-25T15:24:29.972Z,5.38
2022-11-25T15:27:02.774Z,6.32
2022-11-25T15:29:31.321Z,5.30
2022-11-25T15:31:59.904Z,4.43
2022-11-25T15:34:29.599Z,4.65
2022-11-25T15:37:00.495Z,3.97
2022-11-25T15:39:27.865Z,3.85
2022-11-25T15:42:15.579Z,3.30
2022-11-25T15:44:53.531Z,3.35
2022-11-25T15:47:26.659Z,3.15
2022-11-25T15:50:13.658Z,3.85
2022-11-25T15:52:44.654Z,3.55
2022-11-25T15:55:31.994Z,3.30
2022-11-25T15:58:11.444Z,3.42
2022-11-25T16:00:41.587Z,3.75
2022-11-25T16:03:23.075Z,3.65
2022-11-25T16:05:54.886Z,3.65
2022-11-25T16:08:38.102Z,3.67
2022-11-25T16:11:16.041Z,4.25
2022-11-25T16:13:43.426Z,4.18
2022-11-25T16:16:22.397Z,4.70
2022-11-25T16:19:08.046Z,4.10
2022-11-25T16:21:40.398Z,3.60
2022-11-25T16:24:22.251Z,3.92
2022-11-25T16:26:56.407Z,3.70
2022-11-25T16:29:40.883Z,4.78
2022-11-25T16:32:29.151Z,3.67
2022-11-25T16:35:00.654Z,6.18
2022-11-25T16:37:27.465Z,6.05
2022-11-25T16:39:54.298Z,4.93
2022-11-25T16:42:21.957Z,4.50
2022-11-25T16:44:52.438Z,3.70
2022-11-25T16:47:21.091Z,4.57
2022-11-25T16:49:48.353Z,3.88
2022-11-25T16:52:15.492Z,4.68
2022-11-25T16:54:42.356Z,4.47
2022-11-25T16:57:21.876Z,4.72
2022-11-25T16:59:54.384Z,5.40
2022-11-25T17:02:24.356Z,5.97
2022-11-25T17:04:51.433Z,4.55
2022-11-25T17:07:35.066Z,4.55
2022-11-25T17:10:02.691Z,4.72
2022-11-25T17:12:33.308Z,4.88
2022-11-25T17:15:01.315Z,5.13
2022-11-25T17:17:28.754Z,4.97
2022-11-25T17:19:55.759Z,5.38
2022-11-25T17:22:33.376Z,4.38
2022-11-25T17:25:02.996Z,5.60
2022-11-25T17:27:32.314Z,5.30
2022-11-25T17:30:04.537Z,5.75
2022-11-25T17:32:33.004Z,5.50
2022-11-25T17:35:00.656Z,4.97
2022-11-25T17:37:28.775Z,5.22
2022-11-25T17:39:55.741Z,5.60
2022-11-25T17:42:32.334Z,5.55
2022-11-25T17:45:00.435Z,5.05
2022-11-25T17:47:29.494Z,5.43
2022-11-25T17:49:57.792Z,4.80
2022-11-25T17:52:24.820Z,5.40
2022-11-25T17:54:51.810Z,5.82
2022-11-25T17:57:21.608Z,6.07
2022-11-25T17:59:49.044Z,5.20
2022-11-25T18:02:18.758Z,6.45
2022-11-25T18:04:46.378Z,5.03
2022-11-25T18:07:13.213Z,6.57
2022-11-25T18:09:40.254Z,5.45
2022-11-25T18:12:15.330Z,5.75
2022-11-25T18:14:42.982Z,6.75
2022-11-25T18:17:15.900Z,8.77
2022-11-25T18:19:42.793Z,9.52
2022-11-25T18:22:14.219Z,9.02
2022-11-25T18:24:41.520Z,7.32
2022-11-25T18:27:22.377Z,7.28
2022-11-25T18:29:49.665Z,8.70
2022-11-25T18:32:16.623Z,8.90
2022-11-25T18:34:43.504Z,9.82
2022-11-25T18:37:12.291Z,11.20
2022-11-25T18:39:39.443Z,10.00
2022-11-25T18:42:07.389Z,9.93
2022-11-25T18:44:42.199Z,9.07
2022-11-25T18:47:12.732Z,8.43
2022-11-25T18:49:39.807Z,7.40
2022-11-25T18:52:06.900Z,6.15
2022-11-25T18:54:33.714Z,7.20
2022-11-25T18:57:00.727Z,8.38
2022-11-25T18:59:34.495Z,7.13
2022-11-25T19:02:01.611Z,6.65
2022-11-25T19:04:28.613Z,6.90
2022-11-25T19:06:55.377Z,7.13
2022-11-25T19:09:22.167Z,6.47
2022-11-25T19:11:53.091Z,6.80
2022-11-25T19:14:37.802Z,7.70
2022-11-25T19:17:15.495Z,8.05
2022-11-25T19:19:45.232Z,23.20
2022-11-25T19:22:15.120Z,16.30
2022-11-25T19:24:42.702Z,21.02
2022-11-25T19:27:18.508Z,17.38
2022-11-25T19:29:46.227Z,15.65
2022-11-25T19:32:28.139Z,11.25
2022-11-25T19:35:01.335Z,8.90
2022-11-25T19:37:30.174Z,7.32
2022-11-25T19:39:57.337Z,6.38
2022-11-25T19:42:28.431Z,7.85
2022-11-25T19:44:55.277Z,7.00
2022-11-25T19:47:24.845Z,7.20
2022-11-25T19:49:54.619Z,6.82
2022-11-25T19:52:26.516Z,7.22
2022-11-25T19:54:53.380Z,6.13
2022-11-25T19:57:22.833Z,6.43
2022-11-25T19:59:50.183Z,6.30
2022-11-25T20:02:21.526Z,6.25
2022-11-25T20:04:51.072Z,7.32
2022-11-25T20:07:20.163Z,6.00
2022-11-25T20:09:51.473Z,6.03
2022-11-25T20:12:28.077Z,6.95
2022-11-25T20:14:54.910Z,7.53
2022-11-25T20:17:35.169Z,6.90
2022-11-25T20:20:12.058Z,7.00
2022-11-25T20:22:42.585Z,6.68
2022-11-25T20:25:12.749Z,6.40
2022-11-25T20:27:39.721Z,5.53
2022-11-25T20:30:29.600Z,5.45
2022-11-25T20:32:56.502Z,6.57
2022-11-25T20:35:25.864Z,6.47
2022-11-25T20:37:58.077Z,6.03
2022-11-25T20:40:45.313Z,6.70
2022-11-25T20:43:32.237Z,5.90
2022-11-25T20:46:01.254Z,6.15
2022-11-25T20:48:29.160Z,6.38
2022-11-25T20:50:59.949Z,6.22
2022-11-25T20:53:28.113Z,6.57
2022-11-25T20:55:54.975Z,6.20
2022-11-25T20:58:27.855Z,6.40
2022-11-25T21:00:57.669Z,5.80
2022-11-25T21:03:25.864Z,6.00
2022-11-25T21:05:54.830Z,5.47
2022-11-25T21:08:24.062Z,6.45
2022-11-25T21:10:53.836Z,5.43
2022-11-25T21:13:27.209Z,5.68
2022-11-25T21:15:54.555Z,6.25
2022-11-25T21:18:22.389Z,5.80
2022-11-25T21:20:51.677Z,5.60
2022-11-25T21:23:26.118Z,5.90
2022-11-25T21:25:53.507Z,7.40
2022-11-25T21:28:26.799Z,8.25
2022-11-25T21:30:53.977Z,7.93
2022-11-25T21:33:20.918Z,8.77
2022-11-25T21:35:50.620Z,7.15
2022-11-25T21:38:23.869Z,7.15
2022-11-25T21:40:58.615Z,7.40
2022-11-25T21:43:44.402Z,7.15
2022-11-25T21:46:18.077Z,7.00
2022-11-25T21:48:45.536Z,7.45
2022-11-25T21:51:14.260Z,6.90
2022-11-25T21:53:41.605Z,6.22
2022-11-25T21:56:28.795Z,6.43
2022-11-25T21:58:57.000Z,6.40
2022-11-25T22:01:24.596Z,7.22
2022-11-25T22:03:51.852Z,6.20
2022-11-25T22:06:30.094Z,6.75
2022-11-25T22:08:57.489Z,6.63
2022-11-25T22:11:37.169Z,6.97
2022-11-25T22:14:20.004Z,6.75
2022-11-25T22:16:48.049Z,6.45
2022-11-25T22:19:20.483Z,6.45
2022-11-25T22:21:47.481Z,6.40
2022-11-25T22:24:16.074Z,6.72
2022-11-25T22:26:44.245Z,7.20
2022-11-25T22:29:16.365Z,6.63
2022-11-25T22:31:43.860Z,7.10
2022-11-25T22:34:17.759Z,5.68
2022-11-25T22:36:44.905Z,6.68
2022-11-25T22:39:25.911Z,6.05
2022-11-25T22:41:59.116Z,6.10
2022-11-25T22:44:45.653Z,6.95
2022-11-25T22:47:41.008Z,6.88
2022-11-25T22:50:17.354Z,6.18
2022-11-25T22:52:45.282Z,6.50
2022-11-25T22:55:20.972Z,5.60
2022-11-25T22:57:49.424Z,5.85
2022-11-25T23:00:30.317Z,6.03
2022-11-25T23:02:59.655Z,5.07
2022-11-25T23:05:33.694Z,6.57
2022-11-25T23:08:13.177Z,5.55
2022-11-25T23:10:40.498Z,5.95
2022-11-25T23:13:08.502Z,6.10
2022-11-25T23:15:35.750Z,6.15
2022-11-25T23:18:06.616Z,5.75
2022-11-25T23:20:37.398Z,6.05
2022-11-25T23:23:14.614Z,6.40
2022-11-25T23:25:41.799Z,6.18
2022-11-25T23:28:08.694Z,5.60
2022-11-25T23:30:36.126Z,6.57
2022-11-25T23:33:06.551Z,6.00
2022-11-25T23:35:37.425Z,5.75
2022-11-25T23:38:08.837Z,6.45
2022-11-25T23:40:35.708Z,6.10
2022-11-25T23:43:03.085Z,6.10
2022-11-25T23:45:29.921Z,5.60
2022-11-25T23:47:57.248Z,6.55
2022-11-25T23:50:26.798Z,6.40
2022-11-25T23:53:05.858Z,6.25
2022-11-25T23:55:37.203Z,6.68
2022-11-25T23:58:13.832Z,7.38
